Time;durP1;ratioP1;P1;durP2;ratioP2;P2;SDS_P1;SDS_P2;PMS_P1;PMS_P2;Temp;Humidity;BMP_temperature;BMP_pressure;BME280_temperature;BME280_humidity;BME280_pressure;Samples;Min_cycle;Max_cycle;Signal;HPM_P1;HPM_P2
2022/10/15 00:01:11;;;;;;;;;10.75;8.50;;;;;15.33;100.00;100188.13;4914847;28;45379;-93
2022/10/15 00:03:38;;;;;;;;;11.25;6.50;;;;;14.61;100.00;100080.50;4923679;28;47702;-90
2022/10/15 00:06:09;;;;;;;;;8.50;8.50;;;;;14.23;100.00;100000.63;4900757;28;45515;-91
2022/10/15 00:08:35;;;;;;;;;6.50;6.50;;;;;14.20;100.00;100011.38;4916578;28;45303;-90
2022/10/15 00:11:06;;;;;;;;;11.00;9.25;;;;;13.10;100.00;99818.69;4916163;28;45298;-95
2022/10/15 00:13:33;;;;;;;;;10.75;8.50;;;;;13.14;100.00;99830.91;4919408;28;47107;-94
2022/10/15 00:15:59;;;;;;;;;5.25;5.25;;;;;13.08;100.00;99816.09;4922247;28;45300;-95
2022/10/15 00:18:24;;;;;;;;;8.75;7.50;;;;;13.86;100.00;99949.06;4922121;28;45244;-93
2022/10/15 00:20:49;;;;;;;;;8.75;7.75;;;;;13.06;100.00;99814.44;4920101;28;45373;-90
2022/10/15 00:23:15;;;;;;;;;9.75;6.75;;;;;13.75;100.00;99946.03;4922438;28;46833;-90
2022/10/15 00:25:41;;;;;;;;;8.50;6.75;;;;;14.08;100.00;100006.59;4906694;28;45456;-90
2022/10/15 00:28:07;;;;;;;;;9.75;9.75;;;;;13.98;100.00;99979.56;4900730;28;45608;-90
2022/10/15 00:30:32;;;;;;;;;10.50;7.50;;;;;13.74;100.00;99933.66;4907547;28;45685;-90
2022/10/15 00:32:58;;;;;;;;;8.75;5.25;;;;;13.74;100.00;99963.78;4916505;28;47246;-90
2022/10/15 00:35:23;;;;;;;;;10.25;7.25;;;;;12.78;100.00;99789.06;4920049;28;45555;-90
2022/10/15 00:37:48;;;;;;;;;10.00;7.75;;;;;13.56;100.00;99914.97;4918501;28;44844;-88
2022/10/15 00:40:14;;;;;;;;;6.00;6.00;;;;;13.85;100.00;99958.00;4910147;28;45477;-88
2022/10/15 00:42:39;;;;;;;;;6.75;6.75;;;;;14.08;100.00;100018.09;4911016;28;47245;-87
2022/10/15 00:45:10;;;;;;;;;5.25;5.00;;;;;14.70;100.00;100106.69;4923250;28;45543;-91
2022/10/15 00:47:41;;;;;;;;;6.50;6.25;;;;;14.89;100.00;100145.75;4911248;28;45403;-90
2022/10/15 00:50:08;;;;;;;;;5.50;5.50;;;;;14.18;100.00;100026.50;4912578;28;45569;-91
2022/10/15 00:52:38;;;;;;;;;4.75;3.75;;;;;15.00;100.00;100158.59;4902849;28;45556;-88
2022/10/15 00:55:25;;;;;;;;;4.25;4.25;;;;;15.00;100.00;100156.81;4911792;28;45674;-91
2022/10/15 00:57:51;;;;;;;;;9.00;6.75;;;;;14.83;100.00;100132.75;4906710;28;45413;-89
2022/10/15 01:00:17;;;;;;;;;5.00;5.00;;;;;14.97;100.00;100154.28;4910270;28;45458;-89
2022/10/15 01:02:44;;;;;;;;;6.00;6.00;;;;;14.98;100.00;100147.16;4911213;28;47390;-88
2022/10/15 01:05:12;;;;;;;;;9.50;5.50;;;;;14.91;100.00;100135.94;4909652;28;45490;-89
2022/10/15 01:07:37;;;;;;;;;5.00;4.25;;;;;14.81;100.00;100113.34;4918546;28;45468;-90
2022/10/15 01:10:05;;;;;;;;;8.00;6.00;;;;;-145.22;100.00;56698.75;4913202;28;45394;-88
2022/10/15 01:12:37;;;;;;;;;3.00;3.00;;;;;15.02;100.00;100144.28;4000440;28;22469242;-88
2022/10/15 01:15:07;;;;;;;;;3.00;3.00;;;;;14.99;100.00;100135.59;4884966;28;905469;-89
2022/10/15 01:17:50;;;;;;;;;3.75;3.75;;;;;-145.22;100.00;56698.75;4582312;28;2861929;-88
2022/10/15 01:21:09;;;;;;;;;6.50;4.50;;;;;-145.22;100.00;56698.75;3273382;28;15996880;-88
2022/10/15 01:23:59;;;;;;;;;4.00;4.00;;;;;14.99;100.00;100135.59;4212058;28;4310463;-87
2022/10/15 01:27:15;;;;;;;;;1.50;1.50;;;;;-145.22;100.00;56698.75;3118411;28;44168845;-88
2022/10/15 01:29:56;;;;;;;;;4.75;4.75;;;;;14.78;100.00;100103.69;3669475;28;15031121;-88
2022/10/15 01:32:50;;;;;;;;;4.75;4.75;;;;;-145.22;100.00;56698.75;4863401;28;1862957;-88
2022/10/15 01:36:02;;;;;;;;;3.25;3.25;;;;;-145.22;100.00;56698.75;4951192;28;8936;-88
2022/10/15 01:38:37;;;;;;;;;3.50;3.50;;;;;-145.22;100.00;56698.75;4912947;29;10915;-89
2022/10/15 01:41:11;;;;;;;;;3.25;2.75;;;;;-145.22;100.00;56698.75;4910927;29;10665;-90
2022/10/15 01:44:08;;;;;;;;;4.00;3.75;;;;;-145.22;100.00;56698.75;4900269;29;11019;-94
2022/10/15 01:46:42;;;;;;;;;3.75;3.75;;;;;-145.22;100.00;56698.75;4917667;29;10878;-94
2022/10/15 01:49:12;;;;;;;;;5.00;3.50;;;;;-145.22;100.00;56698.75;4918984;29;11333;-93
2022/10/15 01:51:41;;;;;;;;;3.50;3.50;;;;;-145.22;100.00;56698.75;4907722;29;11115;-92
2022/10/15 01:54:12;;;;;;;;;1.00;1.00;;;;;-145.22;100.00;56698.75;4896252;29;11246;-92
2022/10/15 01:56:39;;;;;;;;;5.50;5.00;;;;;-145.22;100.00;56698.75;4898368;29;10666;-94
2022/10/15 01:59:08;;;;;;;;;7.50;4.75;;;;;-145.22;100.00;56698.75;4899067;29;10999;-94
2022/10/15 02:01:34;;;;;;;;;8.00;5.00;;;;;-145.22;100.00;56698.75;4914214;29;10909;-94
2022/10/15 02:03:59;;;;;;;;;4.00;4.00;;;;;-145.22;100.00;56698.75;4909007;29;10749;-94
2022/10/15 02:06:35;;;;;;;;;5.00;4.50;;;;;-145.22;100.00;56698.75;4920927;29;8838;-91
2022/10/15 02:09:25;;;;;;;;;5.00;4.00;;;;;-145.22;100.00;56698.75;4914912;29;8842;-93
2022/10/15 02:12:05;;;;;;;;;2.00;2.00;;;;;-145.22;100.00;56698.75;4928108;28;10984;-93
2022/10/15 02:14:41;;;;;;;;;7.50;7.50;;;;;-145.22;100.00;56698.75;4955581;28;10773;-90
2022/10/15 02:17:13;;;;;;;;;4.50;4.50;;;;;-145.22;100.00;56698.75;4952029;28;10940;-90
2022/10/15 02:19:49;;;;;;;;;6.50;6.50;;;;;-145.22;100.00;56698.75;4947209;28;11148;-91
2022/10/15 02:22:20;;;;;;;;;4.75;4.75;;;;;-145.22;100.00;56698.75;4949691;28;10878;-91
2022/10/15 02:24:52;;;;;;;;;8.25;5.50;;;;;-145.22;100.00;56698.75;4941662;28;10542;-95
2022/10/15 02:27:19;;;;;;;;;4.75;4.75;;;;;-145.22;100.00;56698.75;4947233;28;10639;-92
2022/10/15 02:29:47;;;;;;;;;2.00;2.00;;;;;-145.22;100.00;56698.75;4947830;28;10712;-93
2022/10/15 02:32:15;;;;;;;;;6.00;5.00;;;;;-145.22;100.00;56698.75;4955643;28;10575;-94
2022/10/15 02:34:43;;;;;;;;;6.25;6.25;;;;;-145.22;100.00;56698.75;4944464;28;10322;-93
2022/10/15 02:37:09;;;;;;;;;5.00;5.00;;;;;-145.22;100.00;56698.75;4955437;28;10558;-92
2022/10/15 02:39:34;;;;;;;;;4.75;4.00;;;;;-145.22;100.00;56698.75;4955558;28;10566;-93
2022/10/15 02:42:00;;;;;;;;;5.00;5.00;;;;;-145.22;100.00;56698.75;4945075;28;8850;-93
2022/10/15 02:44:26;;;;;;;;;5.25;5.00;;;;;-145.22;100.00;56698.75;4954800;28;8816;-90
2022/10/15 02:46:51;;;;;;;;;1.00;1.00;;;;;-145.22;100.00;56698.75;4953458;28;11589;-90
2022/10/15 02:49:16;;;;;;;;;3.25;3.00;;;;;-145.22;100.00;56698.75;4936872;28;8846;-91
2022/10/15 02:51:42;;;;;;;;;2.25;2.25;;;;;-145.22;100.00;56698.75;4934821;28;8949;-92
2022/10/15 02:54:07;;;;;;;;;4.25;4.25;;;;;-145.22;100.00;56698.75;4942286;28;8816;-93
2022/10/15 02:56:33;;;;;;;;;4.50;4.25;;;;;-145.22;100.00;56698.75;4952720;28;8939;-93
2022/10/15 02:58:59;;;;;;;;;6.00;5.00;;;;;-145.22;100.00;56698.75;4943808;28;8836;-93
2022/10/15 03:01:25;;;;;;;;;1.75;1.75;;;;;-145.22;100.00;56698.75;4940559;28;10634;-92
2022/10/15 03:03:50;;;;;;;;;2.25;2.25;;;;;-145.22;100.00;56698.75;4932991;28;8858;-91
2022/10/15 03:06:15;;;;;;;;;0.00;0.00;;;;;-145.22;100.00;56698.75;4941078;28;8850;-90
2022/10/15 03:08:41;;;;;;;;;1.75;1.75;;;;;-145.22;100.00;56698.75;4934210;28;8847;-90
2022/10/15 03:11:07;;;;;;;;;0.75;0.00;;;;;-145.22;100.00;56698.75;4945495;28;8844;-92
2022/10/15 03:13:37;;;;;;;;;2.00;2.00;;;;;-145.22;100.00;56698.75;4947289;28;11592;-91
2022/10/15 03:16:05;;;;;;;;;2.00;2.00;;;;;-145.22;100.00;56698.75;4950855;28;11583;-92
2022/10/15 03:18:30;;;;;;;;;2.50;2.50;;;;;-145.22;100.00;56698.75;4943019;28;10359;-91
2022/10/15 03:20:57;;;;;;;;;1.00;1.00;;;;;-145.22;100.00;56698.75;4936783;28;10324;-92
2022/10/15 03:23:22;;;;;;;;;2.25;1.25;;;;;-145.22;100.00;56698.75;4937480;28;8759;-92
2022/10/15 03:25:48;;;;;;;;;1.00;1.00;;;;;-145.22;100.00;56698.75;4939126;28;10568;-92
2022/10/15 03:28:13;;;;;;;;;0.00;0.00;;;;;-145.22;100.00;56698.75;4943828;28;8840;-92
2022/10/15 03:30:39;;;;;;;;;1.00;1.00;;;;;-145.22;100.00;56698.75;4949517;28;8832;-91
2022/10/15 03:33:04;;;;;;;;;2.75;1.00;;;;;-145.22;100.00;56698.75;4941987;28;8831;-92
2022/10/15 03:35:30;;;;;;;;;1.00;1.00;;;;;-145.22;100.00;56698.75;4947017;28;8852;-91
2022/10/15 03:37:55;;;;;;;;;2.00;1.00;;;;;-145.22;100.00;56698.75;4946939;28;8863;-91
2022/10/15 03:40:20;;;;;;;;;0.25;0.25;;;;;-145.22;100.00;56698.75;4946874;28;8855;-91
2022/10/15 03:42:53;;;;;;;;;3.00;1.00;;;;;-145.22;100.00;56698.75;4946095;28;8857;-92
2022/10/15 03:45:19;;;;;;;;;1.00;1.00;;;;;-145.22;100.00;56698.75;4950855;28;8915;-91
2022/10/15 03:47:44;;;;;;;;;2.00;2.00;;;;;-145.22;100.00;56698.75;4947481;28;10402;-90
2022/10/15 03:50:10;;;;;;;;;1.00;1.00;;;;;-145.22;100.00;56698.75;4940326;28;10187;-92
2022/10/15 03:52:36;;;;;;;;;1.00;1.00;;;;;-145.22;100.00;56698.75;4941825;28;8843;-92
2022/10/15 03:55:02;;;;;;;;;0.00;0.00;;;;;-145.22;100.00;56698.75;4943883;28;10348;-92
2022/10/15 03:57:28;;;;;;;;;0.75;0.75;;;;;-145.22;100.00;56698.75;4950411;28;10525;-92
2022/10/15 03:59:53;;;;;;;;;0.75;0.75;;;;;-145.22;100.00;56698.75;4944905;28;10566;-93
2022/10/15 04:02:19;;;;;;;;;2.00;0.75;;;;;-145.22;100.00;56698.75;4947251;28;8842;-93
2022/10/15 04:04:45;;;;;;;;;0.25;0.00;;;;;-145.22;100.00;56698.75;4952747;28;8836;-94
2022/10/15 04:07:10;;;;;;;;;1.00;0.75;;;;;-145.22;100.00;56698.75;4954878;28;9022;-95
2022/10/15 04:09:36;;;;;;;;;0.50;0.50;;;;;-145.22;100.00;56698.75;4946634;28;8858;-90
2022/10/15 04:12:01;;;;;;;;;0.50;0.50;;;;;-145.22;100.00;56698.75;4936706;28;9070;-91
2022/10/15 04:14:26;;;;;;;;;0.00;0.00;;;;;-145.22;100.00;56698.75;4942672;28;8990;-90
2022/10/15 04:16:52;;;;;;;;;0.00;0.00;;;;;-145.22;100.00;56698.75;4947361;28;8856;-90
2022/10/15 04:19:17;;;;;;;;;1.00;1.00;;;;;-145.22;100.00;56698.75;4947377;28;8950;-90
2022/10/15 04:21:42;;;;;;;;;2.00;1.00;;;;;-145.22;100.00;56698.75;4942178;28;8905;-90
2022/10/15 04:24:08;;;;;;;;;1.75;1.75;;;;;-145.22;100.00;56698.75;4945534;28;8840;-91
2022/10/15 04:26:33;;;;;;;;;1.00;0.75;;;;;-145.22;100.00;56698.75;4941919;28;8823;-91
2022/10/15 04:28:59;;;;;;;;;0.00;0.00;;;;;-145.22;100.00;56698.75;4941300;28;8819;-91
2022/10/15 04:31:24;;;;;;;;;2.75;0.00;;;;;-145.22;100.00;56698.75;4936254;28;8854;-90
2022/10/15 04:33:50;;;;;;;;;2.75;1.00;;;;;-145.22;100.00;56698.75;4939522;28;8914;-90
2022/10/15 04:36:15;;;;;;;;;2.00;0.75;;;;;-145.22;100.00;56698.75;4939340;28;8870;-91
2022/10/15 04:38:40;;;;;;;;;1.25;1.25;;;;;-145.22;100.00;56698.75;4953757;28;8836;-91
2022/10/15 04:41:09;;;;;;;;;1.00;1.00;;;;;-145.22;100.00;56698.75;4951883;28;8871;-91
2022/10/15 04:43:35;;;;;;;;;2.00;1.00;;;;;-145.22;100.00;56698.75;4947791;28;8819;-91
2022/10/15 04:46:03;;;;;;;;;1.00;1.00;;;;;-145.22;100.00;56698.75;4947207;28;10435;-90
2022/10/15 04:48:30;;;;;;;;;3.00;1.00;;;;;-145.22;100.00;56698.75;4934949;28;10193;-90
2022/10/15 04:51:17;;;;;;;;;0.75;0.75;;;;;-145.22;100.00;56698.75;4934677;28;10256;-91
2022/10/15 04:53:43;;;;;;;;;1.25;1.00;;;;;-145.22;100.00;56698.75;4934374;28;10163;-90
2022/10/15 04:56:17;;;;;;;;;0.00;0.00;;;;;-145.22;100.00;56698.75;4957991;28;10255;-91
2022/10/15 04:58:45;;;;;;;;;1.00;0.00;;;;;-145.22;100.00;56698.75;4954318;28;8772;-91
2022/10/15 05:01:13;;;;;;;;;0.75;0.00;;;;;-145.22;100.00;56698.75;4950563;28;10541;-91
2022/10/15 05:03:42;;;;;;;;;1.00;1.00;;;;;-145.22;100.00;56698.75;4950532;28;10367;-92
2022/10/15 05:06:10;;;;;;;;;1.00;1.00;;;;;-145.22;100.00;56698.75;4950187;28;10455;-92
2022/10/15 05:08:37;;;;;;;;;1.00;0.75;;;;;-145.22;100.00;56698.75;4949628;28;10092;-93
2022/10/15 05:11:08;;;;;;;;;0.50;0.50;;;;;-145.22;100.00;56698.75;4937701;28;10175;-91
2022/10/15 05:13:33;;;;;;;;;0.50;0.50;;;;;-145.22;100.00;56698.75;4949319;28;10390;-91
2022/10/15 05:16:14;;;;;;;;;1.00;1.00;;;;;-145.22;100.00;56698.75;4945321;28;10289;-91
2022/10/15 05:18:40;;;;;;;;;0.75;0.75;;;;;-145.22;100.00;56698.75;4936183;28;8843;-91
2022/10/15 05:21:06;;;;;;;;;0.75;0.75;;;;;-145.22;100.00;56698.75;4947183;28;10525;-89
2022/10/15 05:23:32;;;;;;;;;0.00;0.00;;;;;-145.22;100.00;56698.75;4947526;28;10065;-89
2022/10/15 05:26:02;;;;;;;;;2.00;2.00;;;;;-145.22;100.00;56698.75;4953598;28;10367;-90
2022/10/15 05:28:28;;;;;;;;;2.50;1.50;;;;;-145.22;100.00;56698.75;4950396;28;8848;-91
2022/10/15 05:30:54;;;;;;;;;1.00;1.00;;;;;-145.22;100.00;56698.75;4953915;28;10360;-90
2022/10/15 05:33:19;;;;;;;;;3.25;3.25;;;;;-145.22;100.00;56698.75;4948933;28;10206;-91
2022/10/15 05:35:45;;;;;;;;;12.25;11.00;;;;;-145.22;100.00;56698.75;4938141;28;8852;-91
2022/10/15 05:38:10;;;;;;;;;12.50;12.50;;;;;-145.22;100.00;56698.75;4944100;28;8860;-91
2022/10/15 05:40:36;;;;;;;;;12.00;12.00;;;;;-145.22;100.00;56698.75;4954715;28;8950;-91
2022/10/15 05:43:01;;;;;;;;;7.75;7.75;;;;;-145.22;100.00;56698.75;4942899;28;8844;-90
2022/10/15 05:45:26;;;;;;;;;6.25;6.00;;;;;-145.22;100.00;56698.75;4943483;28;9554;-91
2022/10/15 05:47:55;;;;;;;;;5.50;4.25;;;;;-145.22;100.00;56698.75;4935982;28;8827;-90
2022/10/15 05:50:23;;;;;;;;;2.25;2.25;;;;;-145.22;100.00;56698.75;4947138;28;8838;-90
2022/10/15 05:52:49;;;;;;;;;3.25;2.00;;;;;-145.22;100.00;56698.75;4941077;28;10406;-91
2022/10/15 05:55:14;;;;;;;;;2.00;2.00;;;;;-145.22;100.00;56698.75;4947359;28;10337;-89
2022/10/15 05:57:40;;;;;;;;;0.75;0.00;;;;;-145.22;100.00;56698.75;4951832;28;8883;-90
2022/10/15 06:00:06;;;;;;;;;0.50;0.50;;;;;-145.22;100.00;56698.75;4939129;28;8867;-90
2022/10/15 06:02:31;;;;;;;;;0.75;0.75;;;;;-145.22;100.00;56698.75;4943734;28;8828;-91
2022/10/15 06:04:57;;;;;;;;;0.50;0.50;;;;;-145.22;100.00;56698.75;4940190;28;10089;-90
2022/10/15 06:07:22;;;;;;;;;0.00;0.00;;;;;-145.22;100.00;56698.75;4941289;28;8863;-90
2022/10/15 06:09:47;;;;;;;;;0.00;0.00;;;;;-145.22;100.00;56698.75;4944392;28;8934;-91
2022/10/15 06:12:13;;;;;;;;;2.00;1.00;;;;;-145.22;100.00;56698.75;4948215;28;8958;-90
2022/10/15 06:14:38;;;;;;;;;0.50;0.00;;;;;-145.22;100.00;56698.75;4933010;28;8913;-91
2022/10/15 06:17:04;;;;;;;;;0.50;0.50;;;;;-145.22;100.00;56698.75;4936159;28;9025;-90
2022/10/15 06:19:29;;;;;;;;;0.00;0.00;;;;;-145.22;100.00;56698.75;4952602;28;8824;-91
2022/10/15 06:21:56;;;;;;;;;1.00;1.00;;;;;-145.22;100.00;56698.75;4942274;28;11595;-91
2022/10/15 06:24:21;;;;;;;;;0.50;0.50;;;;;-145.22;100.00;56698.75;4948057;28;8816;-89
2022/10/15 06:26:46;;;;;;;;;0.00;0.00;;;;;-145.22;100.00;56698.75;4946153;28;10280;-87
2022/10/15 06:29:12;;;;;;;;;0.75;0.75;;;;;-145.22;100.00;56698.75;4944073;28;11181;-89
2022/10/15 06:31:37;;;;;;;;;0.25;0.25;;;;;-145.22;100.00;56698.75;4939798;28;8819;-88
2022/10/15 06:34:03;;;;;;;;;0.00;0.00;;;;;-145.22;100.00;56698.75;4944686;28;8851;-90
2022/10/15 06:36:28;;;;;;;;;0.00;0.00;;;;;-145.22;100.00;56698.75;4937654;28;8890;-88
2022/10/15 06:38:53;;;;;;;;;0.25;0.25;;;;;-145.22;100.00;56698.75;4946480;28;8854;-91
2022/10/15 06:41:19;;;;;;;;;1.75;0.50;;;;;-145.22;100.00;56698.75;4948130;28;8974;-89
2022/10/15 06:43:47;;;;;;;;;0.75;0.75;;;;;-145.22;100.00;56698.75;4939634;28;8878;-91
2022/10/15 06:46:13;;;;;;;;;0.75;0.75;;;;;-145.22;100.00;56698.75;4944207;28;8899;-91
2022/10/15 06:48:38;;;;;;;;;0.00;0.00;;;;;-145.22;100.00;56698.75;4948083;28;10127;-90
2022/10/15 06:51:04;;;;;;;;;0.00;0.00;;;;;-145.22;100.00;56698.75;4937272;28;9566;-88
2022/10/15 06:53:30;;;;;;;;;0.75;0.75;;;;;15.97;100.00;99860.91;4923151;28;45427;-91
2022/10/15 06:56:00;;;;;;;;;0.00;0.00;;;;;15.87;100.00;99851.72;4921950;28;45302;-93
2022/10/15 06:58:26;;;;;;;;;0.00;0.00;;;;;15.85;100.00;99850.94;4910396;28;45552;-90
2022/10/15 07:00:52;;;;;;;;;3.00;0.00;;;;;15.58;100.00;99817.66;4919097;28;46979;-91
2022/10/15 07:03:17;;;;;;;;;1.50;1.00;;;;;15.92;100.00;99870.97;4912768;28;45388;-89
2022/10/15 07:05:42;;;;;;;;;0.00;0.00;;;;;15.60;100.00;99825.56;4907372;28;45471;-91
2022/10/15 07:08:08;;;;;;;;;0.50;0.50;;;;;15.65;100.00;99826.16;4910376;28;45443;-91
2022/10/15 07:10:33;;;;;;;;;0.00;0.00;;;;;15.90;100.00;99875.53;4920907;28;47151;-92
2022/10/15 07:13:00;;;;;;;;;0.00;0.00;;;;;15.49;100.00;99812.81;4912907;28;45288;-91
2022/10/15 07:15:25;;;;;;;;;1.00;1.00;;;;;15.46;100.00;99794.34;4913318;28;45193;-91
2022/10/15 07:18:00;;;;;;;;;0.50;0.00;;;;;15.96;100.00;99876.06;4874255;28;45216;-93
2022/10/15 07:20:27;;;;;;;;;0.00;0.00;;;;;15.58;100.00;99816.81;4915134;28;45547;-93
2022/10/15 07:23:00;;;;;;;;;0.00;0.00;;;;;15.80;100.00;99849.38;4917534;28;45593;-91
2022/10/15 07:25:27;;;;;;;;;1.00;1.00;;;;;15.69;100.00;99830.41;4920602;28;45427;-93
2022/10/15 07:27:54;;;;;;;;;0.00;0.00;;;;;15.30;100.00;99764.13;4916160;28;45306;-91
2022/10/15 07:30:20;;;;;;;;;0.00;0.00;;;;;15.90;100.00;99863.06;4922377;28;47200;-91
2022/10/15 07:32:45;;;;;;;;;0.00;0.00;;;;;15.84;100.00;99844.75;4926862;28;45850;-92
2022/10/15 07:35:10;;;;;;;;;0.00;0.00;;;;;15.77;100.00;99846.84;4939675;28;45348;-92
2022/10/15 07:37:36;;;;;;;;;1.00;0.25;;;;;15.86;100.00;99858.00;4920238;28;45508;-90
2022/10/15 07:40:01;;;;;;;;;1.00;1.00;;;;;15.69;100.00;99817.09;4918555;28;46305;-92
2022/10/15 07:42:27;;;;;;;;;0.25;0.25;;;;;16.23;100.00;99903.97;4914564;28;45461;-89
2022/10/15 07:44:52;;;;;;;;;0.00;0.00;;;;;15.78;100.00;99835.28;4906262;28;45443;-89
2022/10/15 07:47:18;;;;;;;;;0.00;0.00;;;;;15.93;100.00;99852.25;4908919;28;45497;-91
2022/10/15 07:49:49;;;;;;;;;0.00;0.00;;;;;15.76;100.00;99829.13;4909979;28;46035;-93
2022/10/15 07:52:15;;;;;;;;;0.75;0.00;;;;;15.53;100.00;99808.19;4905793;28;45333;-92
2022/10/15 07:54:40;;;;;;;;;0.00;0.00;;;;;16.04;100.00;99878.31;4900212;28;45879;-91
2022/10/15 07:57:05;;;;;;;;;0.00;0.00;;;;;16.14;100.00;99890.22;4900492;28;45673;-91
2022/10/15 07:59:31;;;;;;;;;0.00;0.00;;;;;16.23;100.00;99902.19;4915785;28;47387;-91
2022/10/15 08:01:57;;;;;;;;;0.50;0.00;;;;;16.27;100.00;99910.88;4918155;28;45475;-93
2022/10/15 08:04:23;;;;;;;;;0.50;0.00;;;;;16.28;100.00;99907.28;4909484;28;45560;-92
2022/10/15 08:06:48;;;;;;;;;0.00;0.00;;;;;16.27;100.00;99905.53;4907308;28;45388;-92
2022/10/15 08:09:14;;;;;;;;;0.00;0.00;;;;;16.27;100.00;99902.88;4911041;28;45373;-91
2022/10/15 08:11:39;;;;;;;;;1.25;0.75;;;;;16.55;100.00;99949.38;4905573;28;45431;-90
2022/10/15 08:14:05;;;;;;;;;0.00;0.00;;;;;15.98;100.00;99863.50;4912275;28;45311;-91
2022/10/15 08:16:30;;;;;;;;;0.50;0.00;;;;;16.37;100.00;99909.44;4915734;28;45672;-90
2022/10/15 08:18:57;;;;;;;;;1.00;0.00;;;;;16.33;100.00;99894.53;4904277;28;46228;-90
2022/10/15 08:21:31;;;;;;;;;0.00;0.00;;;;;16.57;100.00;99907.47;4910873;28;45392;-90
2022/10/15 08:23:57;;;;;;;;;0.00;0.00;;;;;17.02;100.00;99884.50;4905014;28;45399;-91
2022/10/15 08:26:25;;;;;;;;;0.00;0.00;;;;;17.44;100.00;99882.94;4908600;28;45434;-90
2022/10/15 08:28:53;;;;;;;;;2.25;2.00;;;;;18.06;100.00;99927.38;4903970;28;46287;-89
2022/10/15 08:31:20;;;;;;;;;0.00;0.00;;;;;17.94;100.00;99903.09;4902919;28;45413;-89
2022/10/15 08:33:46;;;;;;;;;1.50;1.50;;;;;18.18;100.00;99929.28;4905031;28;45469;-90
2022/10/15 08:36:11;;;;;;;;;0.00;0.00;;;;;18.33;100.00;99926.63;4910495;28;45570;-90
2022/10/15 08:38:36;;;;;;;;;1.00;0.75;;;;;18.18;100.00;99899.00;4908230;28;48056;-88
2022/10/15 08:41:15;;;;;;;;;0.00;0.00;;;;;18.17;100.00;99911.50;4912745;28;45319;-88
2022/10/15 08:43:42;;;;;;;;;0.00;0.00;;;;;18.12;100.00;99900.25;4905911;28;45645;-89
2022/10/15 08:46:19;;;;;;;;;0.00;0.00;;;;;18.41;100.00;99917.13;4903895;28;45533;-89
2022/10/15 08:48:52;;;;;;;;;0.50;0.00;;;;;18.39;100.00;99920.88;4921459;28;47345;-89
2022/10/15 08:51:45;;;;;;;;;0.50;0.50;;;;;18.54;100.00;99922.59;4906618;28;45647;-88
2022/10/15 08:54:17;;;;;;;;;0.00;0.00;;;;;18.61;100.00;99921.25;4905607;28;45501;-89
2022/10/15 08:56:46;;;;;;;;;0.00;0.00;;;;;18.54;100.00;99927.94;4912059;28;45378;-89
2022/10/15 08:59:35;;;;;;;;;0.00;0.00;;;;;18.44;100.00;99926.78;4903548;28;46152;-88
2022/10/15 09:02:32;;;;;;;;;0.00;0.00;;;;;18.74;100.00;99955.25;4907982;28;45522;-88
2022/10/15 09:05:11;;;;;;;;;0.00;0.00;;;;;19.04;100.00;99951.56;4924791;28;45507;-89
2022/10/15 09:07:45;;;;;;;;;1.00;1.00;;;;;19.45;100.00;99956.91;4918095;28;45420;-89
2022/10/15 09:10:21;;;;;;;;;1.00;1.00;;;;;19.90;100.00;99966.44;4906794;28;45645;-88
2022/10/15 09:13:10;;;;;;;;;0.00;0.00;;;;;19.92;92.90;99970.75;4914239;28;45489;-89
2022/10/15 09:15:45;;;;;;;;;0.25;0.00;;;;;19.84;95.11;99973.97;4906595;28;45366;-89
2022/10/15 09:18:19;;;;;;;;;0.00;0.00;;;;;19.69;99.52;99943.66;4908025;28;45352;-89
2022/10/15 09:20:45;;;;;;;;;0.50;0.50;;;;;19.59;91.83;99936.34;4916718;28;46358;-87
2022/10/15 09:23:17;;;;;;;;;1.75;1.00;;;;;19.73;92.36;99962.22;4905506;28;45550;-88
2022/10/15 09:25:48;;;;;;;;;1.00;1.00;;;;;20.25;96.02;99977.41;4914236;28;45497;-89
2022/10/15 09:28:19;;;;;;;;;0.00;0.00;;;;;20.22;90.85;99972.25;4915267;28;45627;-90
2022/10/15 09:30:51;;;;;;;;;0.00;0.00;;;;;20.63;91.06;99976.53;4912878;28;45425;-90
2022/10/15 09:33:44;;;;;;;;;0.00;0.00;;;;;20.64;92.02;99962.16;4910486;28;45498;-90
2022/10/15 09:36:32;;;;;;;;;0.00;0.00;;;;;20.75;93.63;99986.41;4918815;28;45463;-88
2022/10/15 09:39:16;;;;;;;;;0.00;0.00;;;;;20.57;92.55;99982.34;4911566;28;45447;-88
2022/10/15 09:41:50;;;;;;;;;1.00;1.00;;;;;20.88;90.05;99985.56;4920352;28;45628;-92
2022/10/15 09:44:17;;;;;;;;;1.00;1.00;;;;;21.12;84.70;99964.09;4920103;28;45582;-90
2022/10/15 09:46:48;;;;;;;;;1.75;1.75;;;;;21.58;84.37;99973.28;4909043;28;45505;-91
2022/10/15 09:49:20;;;;;;;;;1.00;1.00;;;;;21.73;82.83;99947.06;4933313;28;45419;-90
2022/10/15 09:52:06;;;;;;;;;0.00;0.00;;;;;21.91;84.73;99995.88;4936871;28;45447;-89
2022/10/15 09:54:42;;;;;;;;;0.00;0.00;;;;;21.89;81.87;99990.59;4906072;28;45379;-92
2022/10/15 09:57:10;;;;;;;;;0.00;0.00;;;;;21.63;76.73;99989.91;4917890;28;45379;-92
2022/10/15 10:00:02;;;;;;;;;0.00;0.00;;;;;20.96;77.10;99950.09;4903424;28;45407;-92
2022/10/15 10:02:28;;;;;;;;;1.00;1.00;;;;;21.01;81.66;99997.09;4903279;29;45434;-90
2022/10/15 10:04:55;;;;;;;;;0.00;0.00;;;;;21.07;81.73;100046.84;4905739;28;45578;-93
2022/10/15 10:07:40;;;;;;;;;0.00;0.00;;;;;20.81;82.50;100014.66;4901663;28;45505;-94
2022/10/15 10:10:27;;;;;;;;;1.00;1.00;;;;;20.92;82.75;100030.00;4902165;28;45423;-90
2022/10/15 10:12:55;;;;;;;;;0.00;0.00;;;;;20.67;84.41;100004.06;4912874;28;46111;-90
2022/10/15 10:15:20;;;;;;;;;0.75;0.75;;;;;20.65;81.81;100040.84;4902130;28;45264;-91
2022/10/15 10:17:56;;;;;;;;;1.00;0.25;;;;;20.29;81.93;99978.91;4907591;28;45382;-92
2022/10/15 10:20:29;;;;;;;;;0.00;0.00;;;;;20.30;79.07;99998.56;4909920;28;45423;-91
2022/10/15 10:23:16;;;;;;;;;0.00;0.00;;;;;20.32;82.27;100021.63;4925716;28;45520;-93
2022/10/15 10:25:44;;;;;;;;;0.00;0.00;;;;;20.14;81.83;99986.22;4921387;28;45927;-93
2022/10/15 10:28:12;;;;;;;;;0.00;0.00;;;;;20.54;80.45;100044.28;4905070;28;45471;-90
2022/10/15 10:30:56;;;;;;;;;0.00;0.00;;;;;20.19;81.34;99996.63;4918901;28;45338;-91
2022/10/15 10:33:34;;;;;;;;;0.00;0.00;;;;;20.03;79.86;99965.50;4918677;28;47132;-89
2022/10/15 10:36:00;;;;;;;;;0.00;0.00;;;;;20.27;80.52;100002.31;4920298;28;45443;-90
2022/10/15 10:38:28;;;;;;;;;0.75;0.00;;;;;20.55;81.48;100048.69;4923854;28;45449;-91
2022/10/15 10:40:59;;;;;;;;;0.25;0.25;;;;;20.24;81.42;99997.19;4919970;28;45546;-92
2022/10/15 10:43:28;;;;;;;;;1.00;0.00;;;;;20.51;78.80;100052.56;4910353;28;46532;-91
2022/10/15 10:46:00;;;;;;;;;0.00;0.00;;;;;20.37;81.09;100046.31;4897899;28;46133;-89
2022/10/15 10:48:38;;;;;;;;;0.00;0.00;;;;;20.12;79.62;99981.91;4912012;28;45292;-90
2022/10/15 10:51:17;;;;;;;;;1.00;1.00;;;;;20.24;80.13;99989.13;4908280;28;45420;-91
2022/10/15 10:54:03;;;;;;;;;1.00;0.00;;;;;20.71;78.18;100049.38;4919905;28;46711;-93
2022/10/15 10:56:36;;;;;;;;;0.00;0.00;;;;;20.42;78.46;99998.56;4917187;28;45338;-93
2022/10/15 10:59:25;;;;;;;;;0.00;0.00;;;;;20.00;76.76;99932.69;4903588;28;45418;-93
2022/10/15 11:01:55;;;;;;;;;0.00;0.00;;;;;20.65;77.24;100032.78;4903890;29;45247;-94
2022/10/15 11:04:26;;;;;;;;;0.00;0.00;;;;;19.93;75.92;99959.03;4910508;28;46198;-93
2022/10/15 11:07:16;;;;;;;;;0.00;0.00;;;;;20.49;77.48;100081.34;4915350;28;44614;-93
2022/10/15 11:10:01;;;;;;;;;0.00;0.00;;;;;20.15;74.52;100072.94;4907714;29;45426;-93
2022/10/15 11:13:20;;;;;;;;;0.00;0.00;;;;;19.87;78.88;100085.50;4903179;29;45418;-93
2022/10/15 11:16:17;;;;;;;;;0.00;0.00;;;;;19.76;78.68;100075.44;4906260;29;48286;-96
2022/10/15 11:19:26;;;;;;;;;0.00;0.00;;;;;19.85;79.37;100077.56;4902412;28;45257;-93
2022/10/15 11:22:35;;;;;;;;;0.00;0.00;;;;;19.76;81.93;100055.84;4914123;28;45446;-91
2022/10/15 11:25:10;;;;;;;;;0.00;0.00;;;;;19.78;81.56;100086.09;4914631;28;45457;-91
2022/10/15 11:27:56;;;;;;;;;0.00;0.00;;;;;19.66;80.47;100095.78;4929001;28;46222;-93
2022/10/15 11:30:50;;;;;;;;;0.50;0.50;;;;;18.94;81.62;99968.22;4904578;28;45346;-92
2022/10/15 11:33:31;;;;;;;;;0.00;0.00;;;;;20.00;80.27;100077.50;4918942;28;45304;-92
2022/10/15 11:36:08;;;;;;;;;0.00;0.00;;;;;20.38;79.03;100088.28;4920788;28;45591;-91